createdAt,value
2022-08-22T00:01:06.310Z,28.70
2022-08-22T00:02:42.499Z,29.60
2022-08-22T00:02:45.719Z,29.70
2022-08-22T00:03:39.007Z,29.10
2022-08-22T00:06:15.969Z,29.40
2022-08-22T00:08:49.570Z,29.50
2022-08-22T00:11:19.511Z,29.60
2022-08-22T00:13:49.707Z,29.70
2022-08-22T00:16:30.771Z,29.70
2022-08-22T00:19:08.756Z,29.40
2022-08-22T00:21:38.628Z,29.20
2022-08-22T00:24:19.092Z,29.00
2022-08-22T00:27:15.264Z,28.90
2022-08-22T00:29:51.412Z,28.70
2022-08-22T00:32:37.815Z,28.40
2022-08-22T00:35:07.841Z,28.80
2022-08-22T00:37:57.877Z,28.00
2022-08-22T00:40:43.574Z,27.50
2022-08-22T00:43:10.405Z,27.50
2022-08-22T00:45:37.293Z,27.70
2022-08-22T00:48:22.700Z,27.90
2022-08-22T00:51:09.135Z,27.80
2022-08-22T00:53:55.036Z,27.70
2022-08-22T00:56:40.918Z,27.80
2022-08-22T00:59:32.273Z,27.80
2022-08-22T01:02:17.579Z,27.70
2022-08-22T01:05:02.540Z,28.00
2022-08-22T01:07:51.830Z,27.90
2022-08-22T01:10:26.835Z,28.10
2022-08-22T01:13:10.999Z,28.20
2022-08-22T01:15:38.147Z,28.10
2022-08-22T01:18:23.635Z,28.10
2022-08-22T01:20:59.784Z,28.20
2022-08-22T01:23:41.709Z,28.30
2022-08-22T01:26:31.829Z,28.40
2022-08-22T01:29:07.970Z,28.70
2022-08-22T01:31:37.925Z,28.50
2022-08-22T01:34:16.800Z,28.50
2022-08-22T01:37:02.163Z,28.90
2022-08-22T01:39:47.856Z,28.90
2022-08-22T01:42:53.443Z,28.80
2022-08-22T01:45:32.037Z,28.90
2022-08-22T01:48:13.329Z,28.80
2022-08-22T01:51:13.229Z,28.70
2022-08-22T01:53:44.900Z,28.70
2022-08-22T01:56:19.491Z,28.70
2022-08-22T01:58:55.579Z,28.50
2022-08-22T02:01:28.695Z,28.40
2022-08-22T02:03:55.762Z,28.40
2022-08-22T02:06:32.496Z,28.30
2022-08-22T02:09:04.500Z,28.70
2022-08-22T02:11:44.711Z,29.40
2022-08-22T02:14:17.628Z,29.40
2022-08-22T02:16:46.244Z,29.30
2022-08-22T02:19:14.375Z,28.90
2022-08-22T02:21:45.075Z,28.90
2022-08-22T02:24:19.370Z,28.80
2022-08-22T02:27:04.803Z,28.80
2022-08-22T02:29:48.262Z,28.80
2022-08-22T02:32:20.827Z,28.70
2022-08-22T02:34:48.704Z,28.60
2022-08-22T02:37:22.154Z,28.20
2022-08-22T02:39:49.036Z,28.10
2022-08-22T02:42:22.262Z,28.70
2022-08-22T02:45:03.594Z,28.10
2022-08-22T02:47:41.927Z,28.10
2022-08-22T02:50:21.486Z,27.90
2022-08-22T02:53:00.326Z,27.50
2022-08-22T02:55:35.133Z,27.70
2022-08-22T02:58:05.192Z,27.70
2022-08-22T03:00:42.654Z,27.80
2022-08-22T03:03:17.643Z,27.60
2022-08-22T03:05:44.489Z,27.50
2022-08-22T03:08:21.579Z,27.70
2022-08-22T03:11:01.729Z,27.40
2022-08-22T03:13:41.338Z,27.30
2022-08-22T03:16:15.568Z,27.40
2022-08-22T03:18:44.239Z,27.60
2022-08-22T03:21:31.384Z,27.90
2022-08-22T03:24:11.178Z,27.80
2022-08-22T03:26:45.335Z,27.90
2022-08-22T03:29:15.640Z,27.90
2022-08-22T03:32:03.247Z,28.20
2022-08-22T03:34:30.351Z,28.10
2022-08-22T03:37:09.604Z,28.20
2022-08-22T03:39:46.602Z,28.20
2022-08-22T03:42:16.437Z,28.20
2022-08-22T03:44:51.736Z,28.20
2022-08-22T03:47:21.356Z,28.10
2022-08-22T03:49:55.602Z,28.00
2022-08-22T03:52:30.913Z,27.90
2022-08-22T03:55:33.319Z,27.90
2022-08-22T03:58:27.389Z,27.90
2022-08-22T04:00:58.148Z,28.20
2022-08-22T04:03:42.923Z,28.30
2022-08-22T04:06:25.407Z,28.20
2022-08-22T04:09:03.254Z,28.10
2022-08-22T04:11:52.743Z,28.00
2022-08-22T04:14:25.642Z,28.10
2022-08-22T04:17:11.479Z,28.00
2022-08-22T04:19:44.430Z,28.00
2022-08-22T04:22:29.779Z,28.00
2022-08-22T04:24:56.623Z,27.90
2022-08-22T04:27:26.267Z,28.10
2022-08-22T04:29:53.129Z,28.20
2022-08-22T04:32:31.729Z,28.20
2022-08-22T04:35:03.589Z,28.20
2022-08-22T04:37:36.597Z,28.30
2022-08-22T04:40:09.840Z,28.40
2022-08-22T04:42:40.542Z,28.30
2022-08-22T04:45:13.254Z,28.30
2022-08-22T04:47:56.764Z,28.20
2022-08-22T04:50:29.106Z,28.20
2022-08-22T04:53:12.593Z,28.10
2022-08-22T04:55:54.573Z,28.50
2022-08-22T04:58:31.795Z,28.40
2022-08-22T05:01:05.059Z,28.50
2022-08-22T05:03:33.945Z,28.40
2022-08-22T05:06:02.499Z,28.50
2022-08-22T05:08:32.775Z,28.70
2022-08-22T05:11:01.473Z,28.50
2022-08-22T05:13:30.659Z,28.90
2022-08-22T05:15:59.620Z,28.80
2022-08-22T05:18:30.015Z,28.50
2022-08-22T05:20:59.557Z,28.30
2022-08-22T05:23:38.340Z,28.40
2022-08-22T05:26:06.433Z,28.30
2022-08-22T05:28:38.999Z,28.50
2022-08-22T05:31:08.552Z,28.90
2022-08-22T05:33:35.484Z,28.90
2022-08-22T05:36:05.689Z,29.20
2022-08-22T05:38:34.663Z,29.50
2022-08-22T05:41:05.177Z,29.60
2022-08-22T05:43:34.794Z,29.50
2022-08-22T05:46:02.534Z,29.50
2022-08-22T05:48:37.979Z,29.50
2022-08-22T05:51:21.639Z,29.60
2022-08-22T05:53:51.014Z,29.30
2022-08-22T05:56:21.971Z,29.00
2022-08-22T05:58:48.920Z,29.00
2022-08-22T06:01:16.443Z,29.20
2022-08-22T06:04:06.940Z,29.20
2022-08-22T06:06:38.147Z,29.00
2022-08-22T06:09:08.156Z,29.20
2022-08-22T06:11:39.712Z,29.50
2022-08-22T06:14:13.019Z,29.30
2022-08-22T06:16:49.648Z,29.40
2022-08-22T06:19:19.548Z,29.40
2022-08-22T06:21:49.313Z,28.80
2022-08-22T06:24:21.395Z,29.00
2022-08-22T06:26:51.282Z,28.80
2022-08-22T06:29:41.168Z,28.90
2022-08-22T06:32:12.394Z,28.80
2022-08-22T06:34:41.266Z,28.80
2022-08-22T06:37:10.685Z,29.00
2022-08-22T06:39:40.297Z,28.90
2022-08-22T06:42:15.853Z,28.30
2022-08-22T06:44:43.484Z,28.20
2022-08-22T06:47:14.352Z,28.40
2022-08-22T06:49:42.660Z,28.40
2022-08-22T06:52:12.236Z,27.90
2022-08-22T06:54:43.529Z,28.10
2022-08-22T06:57:33.653Z,28.40
2022-08-22T07:00:02.199Z,28.20
2022-08-22T07:02:33.386Z,28.30
2022-08-22T07:05:00.582Z,28.10
2022-08-22T07:07:27.842Z,27.90
2022-08-22T07:09:56.768Z,27.90
2022-08-22T07:12:30.088Z,27.60
2022-08-22T07:15:18.596Z,27.30
2022-08-22T07:17:50.394Z,27.10
2022-08-22T07:20:25.580Z,27.00
2022-08-22T07:22:55.004Z,26.80
2022-08-22T07:25:24.425Z,26.90
2022-08-22T07:28:09.003Z,26.70
2022-08-22T07:30:55.043Z,26.50
2022-08-22T07:34:00.669Z,26.30
2022-08-22T07:36:36.068Z,26.60
2022-08-22T07:39:26.380Z,25.90
2022-08-22T07:42:05.020Z,25.70
2022-08-22T07:44:35.424Z,25.30
2022-08-22T07:47:06.019Z,25.20
2022-08-22T07:49:36.012Z,24.70
2022-08-22T07:52:08.383Z,24.40
2022-08-22T07:54:41.713Z,24.20
2022-08-22T07:57:22.616Z,24.20
2022-08-22T07:59:53.662Z,24.00
2022-08-22T08:02:21.386Z,23.90
2022-08-22T08:04:52.857Z,23.90
2022-08-22T08:07:22.187Z,23.40
2022-08-22T08:09:51.284Z,23.30
2022-08-22T08:12:20.752Z,23.40
2022-08-22T08:14:50.712Z,23.20
2022-08-22T08:17:32.031Z,23.20
2022-08-22T08:20:02.946Z,23.50
2022-08-22T08:22:30.258Z,23.50
2022-08-22T08:24:58.515Z,23.40
2022-08-22T08:27:50.204Z,23.10
2022-08-22T08:30:47.324Z,23.30
2022-08-22T08:33:25.563Z,23.10
2022-08-22T08:36:13.844Z,23.20
2022-08-22T08:38:55.987Z,23.50
2022-08-22T08:41:45.822Z,23.80
2022-08-22T08:44:27.676Z,23.50
2022-08-22T08:47:12.506Z,23.40
2022-08-22T08:49:43.126Z,23.50
2022-08-22T08:52:16.220Z,23.10
2022-08-22T08:54:46.225Z,23.00
2022-08-22T08:57:23.083Z,23.20
2022-08-22T08:59:58.885Z,23.20
2022-08-22T09:02:25.911Z,22.70
2022-08-22T09:05:03.743Z,22.70
2022-08-22T09:07:33.145Z,22.20
2022-08-22T09:10:22.570Z,22.10
2022-08-22T09:13:12.323Z,22.30
2022-08-22T09:15:58.754Z,22.10
2022-08-22T09:18:48.534Z,22.30
2022-08-22T09:21:30.486Z,22.00
2022-08-22T09:24:16.410Z,21.90
2022-08-22T09:26:43.232Z,21.90
2022-08-22T09:29:34.412Z,21.60
2022-08-22T09:32:36.985Z,21.10
2022-08-22T09:35:03.828Z,21.50
2022-08-22T09:37:41.654Z,21.40
2022-08-22T09:40:29.455Z,21.90
2022-08-22T09:43:09.064Z,21.90
2022-08-22T09:45:40.731Z,22.30
2022-08-22T09:48:12.794Z,22.60
2022-08-22T09:50:46.852Z,23.00
2022-08-22T09:53:33.607Z,23.30
2022-08-22T09:56:15.761Z,23.50
2022-08-22T09:58:46.385Z,23.70
2022-08-22T10:01:19.127Z,23.70
2022-08-22T10:03:46.020Z,24.10
2022-08-22T10:06:18.629Z,24.50
2022-08-22T10:08:48.733Z,24.80
2022-08-22T10:11:19.010Z,24.80
2022-08-22T10:13:57.312Z,25.20
2022-08-22T10:16:46.281Z,25.10
2022-08-22T10:19:24.511Z,25.20
2022-08-22T10:22:11.073Z,25.10
2022-08-22T10:24:48.246Z,24.90
2022-08-22T10:27:29.687Z,25.00
2022-08-22T10:30:03.991Z,25.30
2022-08-22T10:32:36.328Z,26.20
2022-08-22T10:35:27.983Z,25.50
2022-08-22T10:38:05.544Z,25.50
2022-08-22T10:40:36.753Z,25.60
2022-08-22T10:43:40.823Z,25.70
2022-08-22T10:46:13.751Z,26.10
2022-08-22T10:48:55.909Z,26.30
2022-08-22T10:51:29.818Z,26.20
2022-08-22T10:54:19.902Z,26.20
2022-08-22T10:56:53.130Z,26.30
2022-08-22T10:59:23.667Z,26.30
2022-08-22T11:01:59.498Z,26.40
2022-08-22T11:04:49.309Z,26.70
2022-08-22T11:07:35.526Z,26.90
2022-08-22T11:10:05.427Z,27.10
2022-08-22T11:12:36.900Z,26.80
2022-08-22T11:15:15.435Z,26.80
2022-08-22T11:18:14.783Z,26.50
2022-08-22T11:21:00.574Z,26.70
2022-08-22T11:23:38.247Z,26.70
2022-08-22T11:26:30.011Z,26.90
2022-08-22T11:29:24.632Z,27.00
2022-08-22T11:32:14.351Z,27.20
2022-08-22T11:34:48.049Z,27.50
2022-08-22T11:37:23.849Z,27.70
2022-08-22T11:40:00.056Z,27.70
2022-08-22T11:42:31.371Z,27.90
2022-08-22T11:45:02.270Z,27.90
2022-08-22T11:47:30.743Z,27.60
2022-08-22T11:50:22.083Z,27.30
2022-08-22T11:52:52.645Z,27.20
2022-08-22T11:55:34.861Z,27.20
2022-08-22T11:58:20.948Z,27.20
2022-08-22T12:01:03.355Z,27.30
2022-08-22T12:03:58.052Z,27.30
2022-08-22T12:06:41.977Z,27.30
2022-08-22T12:09:08.786Z,27.30
2022-08-22T12:11:44.854Z,27.50
2022-08-22T12:14:31.601Z,27.50
2022-08-22T12:16:58.410Z,27.40
2022-08-22T12:19:42.132Z,27.50
2022-08-22T12:22:38.772Z,27.30
2022-08-22T12:25:44.526Z,27.30
2022-08-22T12:28:23.866Z,27.30
2022-08-22T12:31:10.054Z,26.90
2022-08-22T12:33:42.693Z,27.00
2022-08-22T12:36:34.449Z,26.80
2022-08-22T12:39:20.437Z,26.90
2022-08-22T12:41:48.191Z,27.10
2022-08-22T12:44:34.156Z,27.10
2022-08-22T12:47:14.935Z,27.10
2022-08-22T12:49:49.865Z,27.30
2022-08-22T12:52:20.073Z,27.50
2022-08-22T12:54:48.388Z,27.70
2022-08-22T12:57:44.646Z,28.00
2022-08-22T13:00:32.226Z,28.00
2022-08-22T13:03:01.906Z,28.00
2022-08-22T13:05:30.493Z,28.10
2022-08-22T13:08:04.521Z,27.90
2022-08-22T13:10:44.803Z,28.20
2022-08-22T13:13:14.797Z,28.20
2022-08-22T13:15:54.048Z,28.20
2022-08-22T13:18:30.538Z,28.20
2022-08-22T13:20:59.837Z,28.30
2022-08-22T13:23:30.190Z,28.50
2022-08-22T13:26:01.185Z,28.70
2022-08-22T13:28:29.443Z,28.70
2022-08-22T13:30:58.618Z,28.80
2022-08-22T13:33:37.609Z,28.90
2022-08-22T13:36:10.866Z,28.90
2022-08-22T13:38:57.852Z,28.80
2022-08-22T13:41:28.486Z,28.70
2022-08-22T13:44:16.416Z,28.70
2022-08-22T13:47:13.039Z,28.80
2022-08-22T13:49:32.884Z,28.80
2022-08-22T13:52:08.320Z,29.00
2022-08-22T13:54:55.759Z,29.10
2022-08-22T13:57:25.570Z,29.00
2022-08-22T14:00:05.896Z,28.80
2022-08-22T14:02:52.116Z,28.90
2022-08-22T14:05:24.937Z,28.80
2022-08-22T14:07:58.246Z,28.60
2022-08-22T14:10:28.430Z,28.70
2022-08-22T14:12:55.635Z,28.70
2022-08-22T14:15:25.064Z,28.70
2022-08-22T14:17:55.253Z,28.90
2022-08-22T14:20:32.111Z,28.70
2022-08-22T14:23:04.017Z,29.10
2022-08-22T14:25:35.431Z,28.70
2022-08-22T14:28:09.427Z,28.60
2022-08-22T14:30:54.937Z,28.60
2022-08-22T14:33:28.323Z,28.50
2022-08-22T14:36:02.032Z,28.70
2022-08-22T14:38:31.924Z,28.70
2022-08-22T14:41:13.599Z,28.80
2022-08-22T14:43:50.720Z,28.90
2022-08-22T14:46:26.726Z,28.90
2022-08-22T14:49:03.195Z,28.80
2022-08-22T14:51:30.046Z,28.70
2022-08-22T14:54:29.830Z,28.70
2022-08-22T14:56:57.349Z,28.70
2022-08-22T14:59:42.665Z,29.60
2022-08-22T15:02:15.949Z,29.10
2022-08-22T15:04:45.674Z,29.20
2022-08-22T15:07:23.969Z,29.40
2022-08-22T15:09:53.413Z,29.50
2022-08-22T15:12:26.300Z,29.40
2022-08-22T15:14:54.575Z,29.40
2022-08-22T15:17:39.151Z,29.30
2022-08-22T15:20:11.114Z,29.40
2022-08-22T15:22:40.074Z,29.20
2022-08-22T15:25:15.744Z,29.30
2022-08-22T15:27:46.948Z,29.80
2022-08-22T15:30:20.514Z,29.00
2022-08-22T15:32:49.299Z,29.00
2022-08-22T15:35:26.665Z,29.00
2022-08-22T15:37:55.889Z,29.00
2022-08-22T15:40:35.384Z,29.00
2022-08-22T15:43:26.276Z,28.90
2022-08-22T15:46:17.847Z,29.10
2022-08-22T15:48:54.671Z,29.00
2022-08-22T15:51:52.581Z,29.20
2022-08-22T15:54:46.991Z,29.60
2022-08-22T15:57:28.369Z,29.80
2022-08-22T15:59:57.198Z,29.70
2022-08-22T16:02:34.910Z,29.70
2022-08-22T16:05:11.550Z,29.70
2022-08-22T16:07:38.378Z,29.80
2022-08-22T16:10:10.776Z,29.80
2022-08-22T16:12:47.891Z,29.70
2022-08-22T16:15:33.308Z,29.50
2022-08-22T16:18:00.249Z,29.40
2022-08-22T16:20:27.084Z,29.40
2022-08-22T16:22:57.061Z,29.40
2022-08-22T16:25:44.183Z,29.50
2022-08-22T16:28:41.762Z,29.40
2022-08-22T16:31:33.680Z,29.60
2022-08-22T16:34:15.759Z,29.80
2022-08-22T16:36:48.523Z,29.90
2022-08-22T16:39:21.592Z,29.70
2022-08-22T16:41:56.501Z,29.60
2022-08-22T16:44:29.386Z,29.50
2022-08-22T16:47:16.659Z,29.60
2022-08-22T16:49:49.649Z,29.80
2022-08-22T16:52:25.684Z,29.80
2022-08-22T16:54:53.839Z,29.80
2022-08-22T16:57:23.579Z,29.90
2022-08-22T16:59:56.434Z,29.90
2022-08-22T17:02:42.960Z,30.00
2022-08-22T17:05:14.075Z,30.00
2022-08-22T17:08:01.487Z,30.20
2022-08-22T17:10:34.439Z,30.00
2022-08-22T17:13:06.458Z,29.90
2022-08-22T17:15:33.298Z,30.00
2022-08-22T17:18:00.294Z,30.00
2022-08-22T17:20:47.507Z,30.10
2022-08-22T17:23:23.509Z,30.20
2022-08-22T17:25:59.109Z,30.30
2022-08-22T17:28:40.234Z,30.30
2022-08-22T17:31:21.381Z,30.40
2022-08-22T17:33:53.331Z,30.50
2022-08-22T17:36:29.445Z,30.70
2022-08-22T17:39:12.582Z,30.60
2022-08-22T17:41:45.556Z,30.40
2022-08-22T17:44:18.008Z,30.60
2022-08-22T17:46:49.035Z,30.70
2022-08-22T17:49:21.200Z,30.60
2022-08-22T17:52:10.300Z,31.00
2022-08-22T17:54:43.515Z,31.10
2022-08-22T17:57:12.417Z,31.10
2022-08-22T17:59:50.795Z,31.40
2022-08-22T18:02:21.373Z,31.50
2022-08-22T18:04:52.379Z,31.60
2022-08-22T18:07:28.555Z,31.30
2022-08-22T18:10:07.761Z,31.30
2022-08-22T18:12:34.710Z,31.60
2022-08-22T18:15:04.412Z,31.70
2022-08-22T18:17:33.982Z,31.60
2022-08-22T18:20:09.074Z,31.60
2022-08-22T18:22:38.994Z,31.60
2022-08-22T18:25:11.052Z,31.60
2022-08-22T18:27:59.501Z,31.60
2022-08-22T18:30:28.743Z,31.50
2022-08-22T18:33:14.981Z,31.30
2022-08-22T18:36:14.880Z,31.20
2022-08-22T18:38:50.119Z,31.30
2022-08-22T18:41:46.100Z,31.40
2022-08-22T18:44:19.534Z,31.40
2022-08-22T18:46:48.118Z,31.20
2022-08-22T18:49:19.739Z,31.40
2022-08-22T18:52:05.460Z,31.50
2022-08-22T18:54:44.437Z,31.50
2022-08-22T18:57:31.653Z,31.30
2022-08-22T19:00:17.099Z,31.10
2022-08-22T19:02:51.167Z,31.00
2022-08-22T19:05:41.822Z,31.00
2022-08-22T19:08:28.890Z,31.00
2022-08-22T19:11:04.423Z,30.70
2022-08-22T19:13:37.421Z,30.80
2022-08-22T19:16:13.270Z,30.70
2022-08-22T19:18:42.747Z,30.60
2022-08-22T19:21:35.872Z,30.50
2022-08-22T19:24:12.118Z,30.50
2022-08-22T19:26:44.162Z,30.70
2022-08-22T19:29:16.858Z,31.00
2022-08-22T19:31:53.435Z,31.00
2022-08-22T19:34:30.179Z,31.10
2022-08-22T19:37:09.106Z,30.90
2022-08-22T19:39:42.266Z,30.60
2022-08-22T19:42:21.209Z,30.70
2022-08-22T19:44:54.096Z,30.60
2022-08-22T19:47:20.975Z,30.60
2022-08-22T19:49:50.657Z,30.40
2022-08-22T19:52:39.648Z,30.20
2022-08-22T19:55:09.654Z,30.10
2022-08-22T19:57:42.269Z,30.00
2022-08-22T20:00:13.943Z,30.00
2022-08-22T20:02:59.924Z,30.00
2022-08-22T20:05:35.493Z,29.90
2022-08-22T20:08:08.031Z,30.00
2022-08-22T20:10:47.100Z,30.00
2022-08-22T20:13:25.322Z,30.00
2022-08-22T20:16:03.172Z,30.00
2022-08-22T20:19:00.145Z,29.90
2022-08-22T20:21:42.423Z,29.80
2022-08-22T20:24:13.160Z,29.70
2022-08-22T20:26:57.642Z,29.50
2022-08-22T20:29:37.674Z,29.50
2022-08-22T20:32:06.507Z,29.60
2022-08-22T20:34:35.978Z,29.50
2022-08-22T20:37:27.090Z,29.30
2022-08-22T20:40:21.043Z,29.40
2022-08-22T20:43:02.013Z,29.30
2022-08-22T20:45:40.596Z,29.30
2022-08-22T20:48:10.241Z,29.20
2022-08-22T20:50:37.135Z,29.20
2022-08-22T20:53:17.037Z,29.20
2022-08-22T20:55:55.177Z,29.10
2022-08-22T20:58:25.187Z,28.90
2022-08-22T21:00:55.769Z,28.80
2022-08-22T21:03:32.677Z,28.70
2022-08-22T21:06:13.597Z,28.70
2022-08-22T21:08:41.442Z,28.90
2022-08-22T21:11:27.758Z,28.90
2022-08-22T21:13:55.683Z,29.00
2022-08-22T21:16:31.229Z,28.80
2022-08-22T21:18:59.296Z,28.80
2022-08-22T21:21:27.403Z,28.70
2022-08-22T21:24:00.365Z,28.70
2022-08-22T21:26:27.998Z,28.60
2022-08-22T21:29:15.906Z,28.70
2022-08-22T21:31:42.835Z,28.50
2022-08-22T21:34:14.763Z,28.60
2022-08-22T21:36:42.119Z,28.70
2022-08-22T21:39:25.326Z,28.70
2022-08-22T21:42:14.298Z,28.70
2022-08-22T21:44:49.926Z,28.70
2022-08-22T21:47:17.209Z,28.70
2022-08-22T21:50:12.379Z,28.70
2022-08-22T21:52:41.005Z,28.70
2022-08-22T21:55:13.688Z,28.70
2022-08-22T21:57:40.552Z,28.80
2022-08-22T22:00:27.567Z,28.90
2022-08-22T22:02:59.025Z,28.90
2022-08-22T22:05:25.948Z,28.90
2022-08-22T22:07:52.856Z,29.00
2022-08-22T22:10:20.711Z,28.80
2022-08-22T22:12:48.411Z,28.90
2022-08-22T22:15:16.825Z,28.80
2022-08-22T22:17:43.665Z,28.80
2022-08-22T22:20:11.354Z,28.90
2022-08-22T22:22:43.184Z,28.90
2022-08-22T22:25:40.210Z,29.00
2022-08-22T22:28:02.416Z,28.90
2022-08-22T22:30:29.728Z,28.90
2022-08-22T22:32:56.565Z,29.00
2022-08-22T22:35:23.441Z,29.10
2022-08-22T22:37:50.321Z,29.10
2022-08-22T22:40:17.232Z,29.10
2022-08-22T22:42:44.264Z,29.20
2022-08-22T22:45:11.290Z,29.30
2022-08-22T22:47:38.243Z,29.40
2022-08-22T22:50:05.684Z,29.30
2022-08-22T22:52:32.790Z,29.30
2022-08-22T22:55:05.673Z,29.30
2022-08-22T22:57:32.520Z,29.30
2022-08-22T23:00:11.125Z,29.60
2022-08-22T23:02:37.991Z,29.70
2022-08-22T23:05:05.312Z,30.00
2022-08-22T23:07:33.756Z,30.10
2022-08-22T23:10:01.424Z,30.50
2022-08-22T23:12:29.222Z,30.40
2022-08-22T23:14:56.179Z,30.90
2022-08-22T23:17:23.114Z,30.70
2022-08-22T23:19:51.085Z,30.60
2022-08-22T23:22:18.295Z,30.60
2022-08-22T23:24:45.347Z,30.80
2022-08-22T23:27:12.300Z,30.70
2022-08-22T23:29:41.146Z,30.60
2022-08-22T23:32:09.171Z,30.60
2022-08-22T23:34:37.802Z,30.70
2022-08-22T23:37:06.427Z,30.60
2022-08-22T23:39:34.617Z,30.60
2022-08-22T23:42:02.489Z,30.50
2022-08-22T23:44:30.852Z,30.40
2022-08-22T23:46:58.844Z,30.30
2022-08-22T23:49:26.256Z,30.40
2022-08-22T23:51:53.421Z,30.70
2022-08-22T23:54:20.630Z,30.70
2022-08-22T23:56:49.007Z,30.90
2022-08-22T23:59:18.158Z,31.00
